»·PEaware :: BAW341 KDFW-KSNA

BAW341 :: KDFW-KSNA

FLIGHT INFORMATION

Flight Status: Arrived
Operator:
British Airways
More flights by this operator :: More flights under this callsign
Pilot: Andrew N. (12823)
Aircraft: BOEING 767-300
(B763)
More flights by this aircraft type
Origin: KDFW Dallas-Ft Worth Intl
United States
Destination: KSNA John Wayne-Orange Co
United States
More flights between these airports :: More routes between these airports
Route: HRPER3 HULZE TXO J72 ABQ J78 DRK HIMDU KEFFR3
File this flight plan on PilotEdge
Remarks:
Altitude:
(Current/Filed)
40,000ft
Speed:
(Current/Filed)
470kts
Departed: 11-Nov-16 02:42 AM
Arrived: 11-Nov-16 05:15 AM
Distance/Time
Traveled:
1044nm/2:33
Distance/Time
To Go:
Arrived

Flight Plot

Page will automatically refresh every two minutes.

Flight plan parsing failed; only flown route is shown


Map Options




Map Legend


Flown Route
Filed Route
Departure Airport
Arrival Airport
Navaid (VOR, NDB)
Fix

Horizontal Profiles

Position Reports

Time Latitude Longitude Heading Altitude Ground
Speed
11-Nov-16 02:30 32.907209 -97.036430 222 617ft 1kts
11-Nov-16 02:31 32.907625 -97.036059 168 617ft 1kts
11-Nov-16 02:32 32.907773 -97.036260 93 617ft 0kts
11-Nov-16 02:33 32.908795 -97.034690 47 617ft 13kts
11-Nov-16 02:34 32.910947 -97.033049 358 617ft 12kts
11-Nov-16 02:35 32.915574 -97.032580 74 617ft 11kts
11-Nov-16 02:36 32.912879 -97.029929 180 617ft 65kts
11-Nov-16 02:37 32.862546 -97.030431 194 2096ft 237kts
11-Nov-16 02:38 32.812059 -97.059224 207 4931ft 248kts
11-Nov-16 02:39 32.769134 -97.117691 258 8205ft 261kts
11-Nov-16 02:40 32.769128 -97.206619 272 10893ft 297kts
11-Nov-16 02:41 32.788698 -97.313867 284 13175ft 355kts
11-Nov-16 02:42 32.815307 -97.423444 283 16268ft 372kts
11-Nov-16 02:43 32.843948 -97.543039 283 19195ft 387kts
11-Nov-16 02:44 32.873478 -97.666924 280 22042ft 396kts
11-Nov-16 02:45 32.908976 -97.791972 284 24476ft 409kts
11-Nov-16 02:46 32.950972 -97.920535 283 26548ft 423kts
11-Nov-16 02:47 32.993958 -98.052429 283 28446ft 435kts
11-Nov-16 02:48 33.038093 -98.188420 283 30167ft 446kts
11-Nov-16 02:49 33.083543 -98.328440 283 31661ft 458kts
11-Nov-16 02:50 33.129135 -98.469043 283 33495ft 453kts
11-Nov-16 02:51 33.174199 -98.608772 283 35052ft 448kts
11-Nov-16 02:52 33.218675 -98.745985 283 36314ft 444kts
11-Nov-16 02:53 33.262862 -98.883972 284 36996ft 448kts
11-Nov-16 02:54 33.307153 -99.023079 284 37694ft 449kts
11-Nov-16 02:55 33.351314 -99.162500 284 38328ft 449kts
11-Nov-16 02:56 33.395277 -99.301997 284 38803ft 449kts
11-Nov-16 02:57 33.439320 -99.442297 285 39201ft 450kts
11-Nov-16 02:58 33.481071 -99.582827 283 39540ft 449kts
11-Nov-16 02:59 33.520748 -99.724399 283 39860ft 449kts
11-Nov-16 03:00 33.560188 -99.866405 283 40053ft 451kts
11-Nov-16 03:01 33.599400 -100.008870 283 40252ft 451kts
11-Nov-16 03:02 33.638532 -100.151838 283 40300ft 450kts
11-Nov-16 03:03 33.681320 -100.293376 287 40303ft 454kts
11-Nov-16 03:04 33.727969 -100.433744 287 40301ft 454kts
11-Nov-16 03:05 33.774594 -100.574987 288 40300ft 456kts
11-Nov-16 03:06 33.821517 -100.716687 288 40304ft 458kts
11-Nov-16 03:07 33.868229 -100.858843 288 40304ft 458kts
11-Nov-16 03:08 33.914771 -101.001701 288 40330ft 458kts
11-Nov-16 03:09 33.961139 -101.144759 288 40331ft 458kts
11-Nov-16 03:10 34.007243 -101.287717 289 40329ft 459kts
11-Nov-16 03:11 34.053405 -101.431441 289 40330ft 459kts
11-Nov-16 03:12 34.099168 -101.574630 289 40330ft 459kts
11-Nov-16 03:13 34.143727 -101.713526 288 40254ft 414kts
11-Nov-16 03:14 34.181662 -101.832738 288 40188ft 347kts
11-Nov-16 03:15 34.214934 -101.938213 288 38550ft 335kts
11-Nov-16 03:16 34.248431 -102.044678 288 36707ft 338kts
11-Nov-16 03:17 34.282975 -102.154940 289 35554ft 373kts
11-Nov-16 03:18 34.322295 -102.280947 290 34566ft 426kts
11-Nov-16 03:19 34.364819 -102.417681 290 35368ft 436kts
11-Nov-16 03:20 34.407043 -102.554162 290 36502ft 432kts
11-Nov-16 03:21 34.449126 -102.690212 290 37277ft 433kts
11-Nov-16 03:22 34.491713 -102.829885 285 37363ft 450kts
11-Nov-16 03:23 34.516864 -102.980732 280 37480ft 467kts
11-Nov-16 03:24 34.540715 -103.136118 280 38227ft 468kts
11-Nov-16 03:25 34.564274 -103.291669 280 38860ft 470kts
11-Nov-16 03:26 34.587618 -103.447270 280 39421ft 470kts
11-Nov-16 03:27 34.610752 -103.602854 280 39910ft 469kts
11-Nov-16 03:28 34.634073 -103.758204 280 40299ft 469kts
11-Nov-16 03:29 34.656927 -103.913998 280 40346ft 469kts
11-Nov-16 03:30 34.679487 -104.069930 280 40348ft 469kts
11-Nov-16 03:31 34.701821 -104.225801 280 40347ft 468kts
11-Nov-16 03:32 34.723934 -104.381613 280 40351ft 470kts
11-Nov-16 03:33 34.745846 -104.537475 280 40349ft 469kts
11-Nov-16 03:34 34.767778 -104.693698 280 40379ft 472kts
11-Nov-16 03:35 34.789703 -104.850235 280 40424ft 476kts
11-Nov-16 03:36 34.811308 -105.008324 280 40420ft 475kts
11-Nov-16 03:37 34.824377 -105.104807 280 40422ft 475kts
11-Nov-16 03:38 34.845106 -105.259110 280 40418ft 474kts
11-Nov-16 03:39 34.866056 -105.416625 280 40422ft 475kts
11-Nov-16 03:40 34.883146 -105.546332 280 40423ft 477kts
11-Nov-16 03:41 34.907296 -105.728791 280 40421ft 477kts
11-Nov-16 03:42 34.924551 -105.861162 280 40419ft 477kts
11-Nov-16 03:43 34.948276 -106.046786 280 40429ft 477kts
11-Nov-16 03:44 34.965049 -106.179564 280 40429ft 477kts
11-Nov-16 03:45 34.984664 -106.336424 280 40430ft 477kts
11-Nov-16 03:46 34.997773 -106.442147 280 40421ft 477kts
11-Nov-16 03:47 35.013235 -106.567889 280 40421ft 477kts
11-Nov-16 03:48 35.031769 -106.717519 280 40418ft 477kts
11-Nov-16 03:49 35.040857 -106.878222 269 40427ft 482kts
11-Nov-16 03:50 35.035316 -107.039865 268 40419ft 482kts
11-Nov-16 03:51 35.028927 -107.201275 268 40419ft 482kts
11-Nov-16 03:52 35.022235 -107.363633 269 40422ft 483kts
11-Nov-16 03:53 35.015355 -107.525338 269 40456ft 483kts
11-Nov-16 03:54 35.008426 -107.685950 268 40453ft 483kts
11-Nov-16 03:55 35.001459 -107.848798 268 40455ft 485kts
11-Nov-16 03:56 34.993863 -108.012474 268 40455ft 484kts
11-Nov-16 03:57 34.986014 -108.176291 268 40456ft 484kts
11-Nov-16 03:58 34.977929 -108.340316 268 40457ft 485kts
11-Nov-16 03:59 34.969617 -108.504549 268 40457ft 485kts
11-Nov-16 04:00 34.961130 -108.668237 268 40437ft 485kts
11-Nov-16 04:01 34.952886 -108.831869 268 40436ft 486kts
11-Nov-16 04:02 34.943954 -108.995942 268 40397ft 491kts
11-Nov-16 04:03 34.934648 -109.161964 268 40397ft 497kts
11-Nov-16 04:04 34.924972 -109.330218 268 40393ft 499kts
11-Nov-16 04:05 34.915085 -109.498288 268 40393ft 498kts
11-Nov-16 04:06 34.904973 -109.666389 268 40391ft 498kts
11-Nov-16 04:07 34.895154 -109.833996 268 40391ft 500kts
11-Nov-16 04:08 34.884546 -110.002962 268 40381ft 500kts
11-Nov-16 04:09 34.873670 -110.171786 268 40382ft 500kts
11-Nov-16 04:10 34.862558 -110.340557 268 40385ft 502kts
11-Nov-16 04:11 34.851223 -110.509202 268 40384ft 501kts
11-Nov-16 04:12 34.846608 -110.576869 268 40384ft 501kts
11-Nov-16 04:13 34.837002 -110.720557 268 40380ft 502kts
11-Nov-16 04:14 34.825383 -110.888741 268 40357ft 494kts
11-Nov-16 04:15 34.813512 -111.054579 268 40378ft 494kts
11-Nov-16 04:16 34.801328 -111.221201 268 40378ft 494kts
11-Nov-16 04:17 34.788933 -111.387541 269 40351ft 496kts
11-Nov-16 04:18 34.776277 -111.554319 269 40353ft 496kts
11-Nov-16 04:19 34.763782 -111.720116 268 40348ft 497kts
11-Nov-16 04:20 34.750839 -111.887432 268 40349ft 497kts
11-Nov-16 04:21 34.737614 -112.052851 268 40349ft 492kts
11-Nov-16 04:22 34.724165 -112.218015 268 40353ft 493kts
11-Nov-16 04:23 34.710450 -112.383616 268 40351ft 493kts
11-Nov-16 04:24 34.688973 -112.548125 261 40356ft 498kts
11-Nov-16 04:25 34.658662 -112.710524 261 40348ft 498kts
11-Nov-16 04:26 34.627462 -112.874004 261 40348ft 498kts
11-Nov-16 04:27 34.595746 -113.037530 260 40353ft 498kts
11-Nov-16 04:28 34.563893 -113.200405 261 40352ft 498kts
11-Nov-16 04:29 34.531649 -113.364017 261 40344ft 496kts
11-Nov-16 04:30 34.499496 -113.525984 261 40178ft 495kts
11-Nov-16 04:31 34.467415 -113.687117 261 40179ft 495kts
11-Nov-16 04:32 34.435325 -113.848370 260 40180ft 494kts
11-Nov-16 04:33 34.402660 -114.009409 260 40175ft 491kts
11-Nov-16 04:34 34.367871 -114.170044 259 40176ft 493kts
11-Nov-16 04:35 34.333054 -114.329381 259 40184ft 490kts
11-Nov-16 04:36 34.297893 -114.489230 259 40186ft 493kts
11-Nov-16 04:37 34.263198 -114.645877 259 40180ft 490kts
11-Nov-16 04:38 34.228892 -114.802203 259 40188ft 490kts
11-Nov-16 04:39 34.193813 -114.958907 259 40184ft 489kts
11-Nov-16 04:40 34.158356 -115.115845 259 39904ft 464kts
11-Nov-16 04:41 34.125006 -115.262930 259 38062ft 458kts
11-Nov-16 04:42 34.092755 -115.404210 259 36338ft 452kts
11-Nov-16 04:43 34.060054 -115.546602 259 34660ft 453kts
11-Nov-16 04:44 34.016397 -115.687737 252 32781ft 460kts
11-Nov-16 04:45 33.977884 -115.804651 251 31090ft 459kts
11-Nov-16 04:46 33.924106 -115.965563 250 28631ft 454kts
11-Nov-16 04:47 33.887019 -116.076009 250 26886ft 444kts
11-Nov-16 04:48 33.852892 -116.208929 270 24938ft 421kts
11-Nov-16 04:49 33.863719 -116.363071 279 22875ft 399kts
11-Nov-16 04:50 33.872837 -116.490476 275 21151ft 392kts
11-Nov-16 04:51 33.877664 -116.593820 275 19746ft 384kts
11-Nov-16 04:52 33.883730 -116.718782 275 18061ft 375kts
11-Nov-16 04:53 33.889141 -116.838992 271 16484ft 358kts
11-Nov-16 04:54 33.878380 -116.944125 262 15071ft 301kts
11-Nov-16 04:55 33.866694 -117.042351 262 13745ft 296kts
11-Nov-16 04:56 33.855088 -117.138740 262 12362ft 293kts
11-Nov-16 04:57 33.844316 -117.227661 261 11031ft 288kts
11-Nov-16 04:58 33.833192 -117.318884 261 9742ft 281kts
11-Nov-16 04:59 33.822099 -117.409268 261 8500ft 275kts
11-Nov-16 05:00 33.822831 -117.497963 276 6901ft 262kts
11-Nov-16 05:01 33.830413 -117.578908 276 5848ft 242kts
11-Nov-16 05:02 33.837425 -117.653201 276 5244ft 206kts
11-Nov-16 05:03 33.843666 -117.717064 276 3806ft 201kts
11-Nov-16 05:04 33.827356 -117.772408 206 2907ft 201kts
11-Nov-16 05:05 33.782572 -117.800994 207 2358ft 166kts
11-Nov-16 05:06 33.745402 -117.824572 207 1482ft 150kts
11-Nov-16 05:07 33.708914 -117.847618 207 767ft 153kts
11-Nov-16 05:08 33.676956 -117.867994 208 67ft 97kts
11-Nov-16 05:09 33.670374 -117.873603 338 67ft 13kts
11-Nov-16 05:10 33.673263 -117.871914 28 67ft 23kts
11-Nov-16 05:11 33.674094 -117.868057 132 67ft 9kts
11-Nov-16 05:12 33.674870 -117.866008 33 67ft 9kts
11-Nov-16 05:13 33.675094 -117.865135 114 67ft 0kts
11-Nov-16 05:14 33.675094 -117.865135 114 67ft 0kts
11-Nov-16 05:15 33.675094 -117.865135 114 67ft 0kts
11-Nov-16 05:16 33.675094 -117.865135 114 67ft 0kts
11-Nov-16 05:17 33.675094 -117.865135 114 67ft 0kts
11-Nov-16 05:18 33.675094 -117.865135 114 67ft 0kts
11-Nov-16 05:19 33.675094 -117.865135 114 67ft 0kts

Navigation Log

Ident Type
Flight plan parsing failed, navigation log unavailable